Airfield :
LOGIN :

Register | Disclaimer

   EN    FR    IT 

 










Legend :    VFR   Marginal VFR   IFR   Intensive IFR   Very Intensive IFR
Visi :
Ceiling :
>= 8 km
>= 3000ft
5 to 8 km
1000 to 3000 ft
1500m to 5 km
500 to 1000 ft
800 to 1500m
200 to 500 ft
< 800m
< 200 ft
Symbols :   Thunderstorms  Fog  Heavy snow  Heavy precipitations  Wind > 20 kt
SIGMETs :     Misc.  Thunderstorms  Icing  Turbulence  Mountain Waves  Volcanic Ashes






- Airport Elevation : 68 ft
- IATA code : AGH


ESTA - Ängelholm-Helsingborg

CURRENT METAR :
  • 081320Z 11012KT 9999 OVC022 02/00 Q1014

EXPIRED METARs :
  • 081250Z 10011KT 9999 SCT016 OVC024 02/00 Q1015
  • 081220Z 11008KT 9000 OVC016 02/00 Q1015
  • 081150Z 09008KT 9000 OVC017 02/00 Q1015
  • 081120Z 10007KT 9000 OVC018 02/01 Q1015
  • 081050Z 09007KT 7000 SCT018 OVC027 01/01 Q1016
  • 081020Z 10007KT 5000 BR FEW006 BKN022 01/01 Q1016
  • 080950Z 12007KT 4500 BR OVC006 01/01 Q1016
  • 080920Z 10008KT 4700 BR OVC006 01/01 Q1016
  • 080850Z 11009KT 4500 BR OVC007 01/01 Q1016

TAF TAF ESTA
Valid from the 08 at 12:00 until the 08 at 21:00 UTC


081109Z 0812/0821 12008KT 9999 BKN020
TEMPO 0812/0817 BKN009
TEMPO 0817/0821 3000 -RASN BKN005



MET'MAP, your aeronautical weather chart ! - Copyright ORBIFLY December 2007 - Disclaimer

ORBIFLY MET'MAP TEAM :

Programming & Development : Alexandra Zaïnal
Original concept : Baudouin d'Aumeries
Technical & hardware support : Manuel Goepfert
Assistance : Marc-Olivier Méhu




SOURCES & CREDITS :

   NOAA